• Join FlightAware (Why Join?)
  • Login
  • US Flag 
10:16AM EDT


 

Airport Tracker/Info


-or-


 

Live Flight TrackerFlight Track Log ✈ GJS6221 ✈ 26-Apr-2013 ✈ KBTV - KLGA

Flight Track Log - Related Links

Times and Time Zones

All times are in EDT time to prevent confusion due to time zone crossing. See the GJS6221 flight status page for this flight to view local times or setup timezone preferences in your user account.

Time Position Orientation Groundspeed Altitude Reporting Facility
EDT Latitude Longitude Course Direction KTS MPH feet Rate Location/Type
02:33PM 44.5372 -73.3194 254° West 202 232 7,400  Level Boston Center
02:34PM 44.4661 -73.3389 191° South 194 223 9,900 2,160 Climbing Boston Center
02:35PM 44.3911 -73.3611 192° South 260 299 11,800 1,620 Climbing Boston Center
02:36PM 44.3011 -73.3856 191° South 325 374 13,200 1,260 Climbing Boston Center
02:37PM 43.9025 -73.3657 196° South  Level FlightAware Approximate
02:37PM 44.1989 -73.4131 191° South 370 426 14,400  Level Boston Center
02:38PM 44.0881 -73.4458 192° South 394 453 16,600 1,800 Climbing Boston Center
02:39PM 43.9794 -73.4758 191° South 399 459 18,000 1,380 Climbing Boston Center
02:40PM 43.8542 -73.5111 191° South 413 475 19,400 1,500 Climbing Boston Center
02:41PM 43.7392 -73.5406 190° South 422 486 21,000 1,260 Climbing Boston Center
02:42PM 43.6347 -73.5675 191° South 427 491 22,000 480 Climbing Boston Center
02:43PM 43.5136 -73.5994 191° South 432 497 22,000  Level Boston Center
02:44PM 43.3925 -73.6314 191° South 438 504 22,000  Level Boston Center
02:45PM 43.2733 -73.6633 191° South 438 504 22,000  Level Boston Center
02:46PM 43.1519 -73.6981 192° South 443 510 22,000  Level Boston Center
02:47PM 43.0161 -73.7350 191° South 449 517 22,000 -60 Level Boston Center
02:48PM 42.8992 -73.7667 191° South 449 517 21,900  Descending Boston Center
02:49PM 42.7800 -73.7978 191° South 443 510 22,000 -60 Climbing Boston Center
02:50PM 42.6531 -73.7839 175° South 443 510 21,800 -600 Descending Boston Center
02:51PM 42.5322 -73.7642 173° South 443 510 20,900 -900 Descending Boston Center
02:52PM 42.4367 -73.7425 170° South 443 510 20,100 -900 Descending Boston Center
02:53PM 42.3161 -73.7175 171° South 443 510 19,100 -600 Descending Boston Center
02:54PM 42.1725 -73.6894 172° South 443 510 19,000 -60 Descending Boston Center
02:55PM 42.0561 -73.6619 170° South 438 504 19,000  Level Boston Center
02:56PM 41.9314 -73.6344 171° South 444 511 19,000 -180 Level Boston Center
02:57PM 41.8147 -73.6239 176° South 444 511 18,700 -1,260 Descending Boston Center
02:58PM 41.7081 -73.6664 197° South 415 478 16,500 -2,700 Descending Boston Center
02:59PM 41.6014 -73.7061 196° South 402 463 13,400 -2,640 Descending Boston Center
03:00PM 41.5072 -73.7403 195° South 383 441 10,800 -1,740 Descending Boston Center
03:01PM 41.4439 -73.8053 218° Southwest 280 322 9,700 -900 Descending Boston Center
03:02PM 41.5039 -73.8508 330° Northwest 146 168 9,000 -360 Descending Boston Center
03:03PM 41.5661 -73.8689 348° North 205 236 9,000  Level Boston Center
03:04PM 41.6367 -73.8900 347° North 241 277 9,000  Level Boston Center
03:05PM 41.6800 -73.9300 325° Northwest 219 252 9,000  Level Boston Center
03:06PM 41.6211 -73.9619 202° Southwest 119 137 9,000  Level Boston Center
03:07PM 41.5500 -73.9333 163° South 284 327 9,000  Level New York TRACON
03:08PM 41.4833 -73.9000 159° South 284 327 9,000  Level New York TRACON
03:09PM 41.4167 -73.8667 159° South 282 325 9,000 -420 Level New York TRACON
03:10PM 41.3500 -73.8000 143° Southeast 290 334 8,200 -540 Descending New York TRACON
03:11PM 41.2833 -73.7500 151° Southeast 279 321 8,000 -600 Descending New York TRACON
03:12PM 41.2167 -73.6833 143° Southeast 280 322 7,100 -1,200 Descending New York TRACON
03:13PM 41.1500 -73.6500 159° South 279 321 5,600 -1,380 Descending New York TRACON
03:14PM 41.0833 -73.6333 169° South 272 313 4,400 -840 Descending New York TRACON
03:15PM 41.0000 -73.6167 171° South 271 312 4,000 -240 Descending New York TRACON
03:16PM 40.9333 -73.6333 191° South 264 304 4,000  Level New York TRACON
03:17PM 40.8667 -73.6667 201° Southwest 264 304 4,000  Level New York TRACON
03:18PM 40.8000 -73.7167 210° Southwest 258 297 4,000  Level New York TRACON
03:19PM 40.8000 -73.8000 270° West 255 293 4,000  Level New York TRACON